createdAt,value
2023-01-08T00:01:16.503Z,4.80
2023-01-08T00:03:43.793Z,4.40
2023-01-08T00:06:14.976Z,4.95
2023-01-08T00:08:41.744Z,4.90
2023-01-08T00:11:08.583Z,4.22
2023-01-08T00:13:35.578Z,4.68
2023-01-08T00:16:09.057Z,4.60
2023-01-08T00:18:36.256Z,4.10
2023-01-08T00:21:03.573Z,4.97
2023-01-08T00:23:30.493Z,4.50
2023-01-08T00:25:57.323Z,4.40
2023-01-08T00:28:24.198Z,4.35
2023-01-08T00:30:51.010Z,4.55
2023-01-08T00:33:17.817Z,4.45
2023-01-08T00:35:45.594Z,3.72
2023-01-08T00:38:12.459Z,4.60
2023-01-08T00:40:40.404Z,4.13
2023-01-08T00:43:07.529Z,3.95
2023-01-08T00:45:34.647Z,4.05
2023-01-08T00:48:01.586Z,4.22
2023-01-08T00:50:28.392Z,4.30
2023-01-08T00:52:55.181Z,4.10
2023-01-08T00:55:22.065Z,3.67
2023-01-08T00:57:48.830Z,4.70
2023-01-08T01:00:16.694Z,4.10
2023-01-08T01:02:44.134Z,4.32
2023-01-08T01:05:15.299Z,4.47
2023-01-08T01:07:43.774Z,4.82
2023-01-08T01:10:13.338Z,4.63
2023-01-08T01:12:40.475Z,4.65
2023-01-08T01:15:10.786Z,4.47
2023-01-08T01:17:42.889Z,4.70
2023-01-08T01:20:13.851Z,4.65
2023-01-08T01:22:41.183Z,4.75
2023-01-08T01:25:09.085Z,4.65
2023-01-08T01:27:35.921Z,4.38
2023-01-08T01:30:04.472Z,4.40
2023-01-08T01:32:31.361Z,3.88
2023-01-08T01:34:58.208Z,4.22
2023-01-08T01:37:25.011Z,4.40
2023-01-08T01:39:51.939Z,4.18
2023-01-08T01:42:39.099Z,4.25
2023-01-08T01:45:27.624Z,3.55
2023-01-08T01:48:02.760Z,4.22
2023-01-08T01:50:36.580Z,3.65
2023-01-08T01:53:14.329Z,3.90
2023-01-08T01:55:43.789Z,4.03
2023-01-08T01:58:22.828Z,4.25
2023-01-08T02:00:51.618Z,4.00
2023-01-08T02:03:24.156Z,3.80
2023-01-08T02:06:18.104Z,3.95
2023-01-08T02:09:02.182Z,4.30
2023-01-08T02:12:16.728Z,4.22
2023-01-08T02:15:18.727Z,4.18
2023-01-08T02:17:53.636Z,3.63
2023-01-08T02:20:33.764Z,4.38
2023-01-08T02:23:49.478Z,4.03
2023-01-08T02:26:29.113Z,4.03
2023-01-08T02:29:16.268Z,4.30
2023-01-08T02:31:44.125Z,4.40
2023-01-08T02:34:12.836Z,4.28
2023-01-08T02:36:48.551Z,3.88
2023-01-08T02:39:34.010Z,3.75
2023-01-08T02:42:54.663Z,4.07
2023-01-08T02:45:46.607Z,3.65
2023-01-08T02:48:45.903Z,3.95
2023-01-08T02:51:23.965Z,3.55
2023-01-08T02:54:05.526Z,4.28
2023-01-08T02:56:37.472Z,4.03
2023-01-08T02:59:06.720Z,3.97
2023-01-08T03:01:36.012Z,4.30
2023-01-08T03:04:19.067Z,4.32
2023-01-08T03:06:46.387Z,3.80
2023-01-08T03:09:14.252Z,3.72
2023-01-08T03:11:46.748Z,3.88
2023-01-08T03:14:18.973Z,3.97
2023-01-08T03:17:07.120Z,4.32
2023-01-08T03:19:43.265Z,3.58
2023-01-08T03:22:16.673Z,4.22
2023-01-08T03:24:48.195Z,3.67
2023-01-08T03:27:19.912Z,4.25
2023-01-08T03:29:51.980Z,4.00
2023-01-08T03:32:20.410Z,4.00
2023-01-08T03:34:50.100Z,3.80
2023-01-08T03:37:25.691Z,4.13
2023-01-08T03:40:09.353Z,3.50
2023-01-08T03:42:36.166Z,3.25
2023-01-08T03:45:03.415Z,3.70
2023-01-08T03:47:32.531Z,3.58
2023-01-08T03:50:03.438Z,3.55
2023-01-08T03:52:32.833Z,3.80
2023-01-08T03:54:59.714Z,3.38
2023-01-08T03:57:26.615Z,3.38
2023-01-08T03:59:53.465Z,3.78
2023-01-08T04:02:20.456Z,4.13
2023-01-08T04:04:48.048Z,3.83
2023-01-08T04:07:15.298Z,3.47
2023-01-08T04:09:42.033Z,3.58
2023-01-08T04:12:09.064Z,3.53
2023-01-08T04:14:35.906Z,3.40
2023-01-08T04:17:02.710Z,3.63
2023-01-08T04:19:29.478Z,3.33
2023-01-08T04:21:56.279Z,3.15
2023-01-08T04:24:23.072Z,2.97
2023-01-08T04:26:49.851Z,2.75
2023-01-08T04:29:16.643Z,2.50
2023-01-08T04:31:43.532Z,2.95
2023-01-08T04:34:10.510Z,2.65
2023-01-08T04:36:37.376Z,3.13
2023-01-08T04:39:04.931Z,2.53
2023-01-08T04:41:31.692Z,2.92
2023-01-08T04:43:58.456Z,2.80
2023-01-08T04:46:25.346Z,2.25
2023-01-08T04:48:52.156Z,2.28
2023-01-08T04:51:18.938Z,2.40
2023-01-08T04:53:46.236Z,2.60
2023-01-08T04:56:13.799Z,2.22
2023-01-08T04:58:40.789Z,2.35
2023-01-08T05:01:22.791Z,2.42
2023-01-08T05:03:54.988Z,2.38
2023-01-08T05:06:21.858Z,2.35
2023-01-08T05:08:49.168Z,2.60
2023-01-08T05:11:16.582Z,2.47
2023-01-08T05:13:43.421Z,2.25
2023-01-08T05:16:10.296Z,2.47
2023-01-08T05:18:37.086Z,2.22
2023-01-08T05:21:05.528Z,2.15
2023-01-08T05:23:33.255Z,2.00
2023-01-08T05:26:01.773Z,2.20
2023-01-08T05:28:29.556Z,2.65
2023-01-08T05:30:56.900Z,1.88
2023-01-08T05:33:24.719Z,1.77
2023-01-08T05:35:51.717Z,1.80
2023-01-08T05:38:18.496Z,1.65
2023-01-08T05:40:45.325Z,1.63
2023-01-08T05:43:12.539Z,1.45
2023-01-08T05:45:39.332Z,1.40
2023-01-08T05:48:07.430Z,1.48
2023-01-08T05:50:35.080Z,1.58
2023-01-08T05:53:01.972Z,1.50
2023-01-08T05:55:28.770Z,1.23
2023-01-08T05:57:55.581Z,1.10
2023-01-08T06:00:24.242Z,1.10
2023-01-08T06:02:51.067Z,1.52
2023-01-08T06:05:17.861Z,1.13
2023-01-08T06:07:44.665Z,0.82
2023-01-08T06:10:11.522Z,1.00
2023-01-08T06:12:38.275Z,1.02
2023-01-08T06:15:06.113Z,0.90
2023-01-08T06:17:32.866Z,0.90
2023-01-08T06:19:59.608Z,0.93
2023-01-08T06:22:27.291Z,0.70
2023-01-08T06:24:54.325Z,0.90
2023-01-08T06:27:21.161Z,0.82
2023-01-08T06:29:47.904Z,0.73
2023-01-08T06:32:14.975Z,0.80
2023-01-08T06:34:41.732Z,0.80
2023-01-08T06:37:08.556Z,0.70
2023-01-08T06:39:35.383Z,0.82
2023-01-08T06:42:02.140Z,1.00
2023-01-08T06:44:28.951Z,0.70
2023-01-08T06:46:55.859Z,0.80
2023-01-08T06:49:22.731Z,0.80
2023-01-08T06:51:49.501Z,1.02
2023-01-08T06:54:16.347Z,0.93
2023-01-08T06:56:53.332Z,1.00
2023-01-08T06:59:21.767Z,0.70
2023-01-08T07:01:49.242Z,0.65
2023-01-08T07:04:16.897Z,0.80
2023-01-08T07:06:43.692Z,0.70
2023-01-08T07:09:13.897Z,0.70
2023-01-08T07:11:41.653Z,0.65
2023-01-08T07:14:08.606Z,0.73
2023-01-08T07:16:36.056Z,0.90
2023-01-08T07:19:03.005Z,0.80
2023-01-08T07:21:30.992Z,0.82
2023-01-08T07:23:59.336Z,0.88
2023-01-08T07:26:26.772Z,0.70
2023-01-08T07:28:53.703Z,0.82
2023-01-08T07:31:20.571Z,0.60
2023-01-08T07:33:47.452Z,0.80
2023-01-08T07:36:15.542Z,0.68
2023-01-08T07:38:43.083Z,0.60
2023-01-08T07:41:09.878Z,0.70
2023-01-08T07:43:36.741Z,0.70
2023-01-08T07:46:04.493Z,0.80
2023-01-08T07:48:31.879Z,0.60
2023-01-08T07:51:08.036Z,0.70
2023-01-08T07:53:36.418Z,0.60
2023-01-08T07:56:11.362Z,1.15
2023-01-08T07:58:38.226Z,0.63
2023-01-08T08:01:08.609Z,0.73
2023-01-08T08:03:35.508Z,0.85
2023-01-08T08:06:02.377Z,0.90
2023-01-08T08:08:29.210Z,0.70
2023-01-08T08:10:56.018Z,0.70
2023-01-08T08:13:22.835Z,0.65
2023-01-08T08:15:49.691Z,0.60
2023-01-08T08:18:16.722Z,0.70
2023-01-08T08:20:43.536Z,0.68
2023-01-08T08:23:14.934Z,0.80
2023-01-08T08:25:42.744Z,0.90
2023-01-08T08:28:11.599Z,0.77
2023-01-08T08:30:42.131Z,0.70
2023-01-08T08:33:10.036Z,0.80
2023-01-08T08:35:37.653Z,0.50
2023-01-08T08:38:04.994Z,0.63
2023-01-08T08:40:32.421Z,0.60
2023-01-08T08:43:02.028Z,0.60
2023-01-08T08:45:29.543Z,0.60
2023-01-08T08:47:56.291Z,0.50
2023-01-08T08:50:23.708Z,0.55
2023-01-08T08:52:50.572Z,0.60
2023-01-08T08:55:17.723Z,0.50
2023-01-08T08:57:48.297Z,0.60
2023-01-08T09:00:15.978Z,0.50
2023-01-08T09:02:43.155Z,0.50
2023-01-08T09:05:11.197Z,0.50
2023-01-08T09:07:38.547Z,0.50
2023-01-08T09:10:06.647Z,0.60
2023-01-08T09:12:33.456Z,0.43
2023-01-08T09:15:00.240Z,0.77
2023-01-08T09:17:27.076Z,0.60
2023-01-08T09:19:53.868Z,0.60
2023-01-08T09:22:20.789Z,0.60
2023-01-08T09:24:47.772Z,0.52
2023-01-08T09:27:14.733Z,0.60
2023-01-08T09:29:41.546Z,0.63
2023-01-08T09:32:09.295Z,0.60
2023-01-08T09:34:36.371Z,0.73
2023-01-08T09:37:04.615Z,0.60
2023-01-08T09:39:32.142Z,1.00
2023-01-08T09:42:06.167Z,0.60
2023-01-08T09:44:43.102Z,0.60
2023-01-08T09:47:33.079Z,0.70
2023-01-08T09:52:31.344Z,0.65
2023-01-08T09:54:59.505Z,0.77
2023-01-08T09:57:27.082Z,0.68
2023-01-08T09:59:53.872Z,0.63
2023-01-08T10:02:24.510Z,0.60
2023-01-08T10:04:57.976Z,0.63
2023-01-08T10:07:26.739Z,0.60
2023-01-08T10:09:54.863Z,0.60
2023-01-08T10:12:30.964Z,0.70
2023-01-08T10:15:04.076Z,0.70
2023-01-08T10:17:39.425Z,0.55
2023-01-08T10:20:26.594Z,0.63
2023-01-08T10:22:54.206Z,0.80
2023-01-08T10:25:26.204Z,0.70
2023-01-08T10:28:02.013Z,0.80
2023-01-08T10:30:37.517Z,0.50
2023-01-08T10:33:18.736Z,0.68
2023-01-08T10:36:02.832Z,0.70
2023-01-08T10:38:42.289Z,0.80
2023-01-08T10:41:14.998Z,0.80
2023-01-08T10:44:04.406Z,0.70
2023-01-08T10:46:43.963Z,0.70
2023-01-08T10:49:19.465Z,0.90
2023-01-08T10:51:53.007Z,0.70
2023-01-08T10:54:40.266Z,0.70
2023-01-08T10:57:31.362Z,0.80
2023-01-08T10:59:58.161Z,0.90
2023-01-08T11:02:39.095Z,0.95
2023-01-08T11:05:11.081Z,1.08
2023-01-08T11:07:40.148Z,0.77
2023-01-08T11:10:21.585Z,0.90
2023-01-08T11:12:58.053Z,0.90
2023-01-08T11:15:44.245Z,0.65
2023-01-08T11:18:23.345Z,0.80
2023-01-08T11:20:52.387Z,1.10
2023-01-08T11:23:27.814Z,1.23
2023-01-08T11:26:16.323Z,0.85
2023-01-08T11:29:15.752Z,1.00
2023-01-08T11:31:57.563Z,0.80
2023-01-08T11:34:51.920Z,2.03
2023-01-08T11:37:28.253Z,0.80
2023-01-08T11:39:56.592Z,0.70
2023-01-08T11:43:05.576Z,1.08
2023-01-08T11:46:07.922Z,0.50
2023-01-08T11:48:47.183Z,0.63
2023-01-08T11:51:51.273Z,0.70
2023-01-08T11:55:01.675Z,0.52
2023-01-08T11:58:10.347Z,0.68
2023-01-08T12:01:00.352Z,0.60
2023-01-08T12:06:17.825Z,0.65
2023-01-08T12:09:22.924Z,0.50
2023-01-08T12:12:06.305Z,0.50
2023-01-08T12:14:40.017Z,0.40
2023-01-08T12:17:37.728Z,0.50
2023-01-08T12:20:37.041Z,0.60
2023-01-08T12:23:32.528Z,0.55
2023-01-08T12:26:12.873Z,0.70
2023-01-08T12:28:58.976Z,0.45
2023-01-08T12:32:06.759Z,0.40
2023-01-08T12:35:09.068Z,0.40
2023-01-08T12:37:52.944Z,0.30
2023-01-08T12:40:42.097Z,0.40
2023-01-08T12:43:22.008Z,0.40
2023-01-08T12:48:24.212Z,0.40
2023-01-08T12:51:05.270Z,0.30
2023-01-08T12:53:56.222Z,0.30
2023-01-08T12:56:46.353Z,0.35
2023-01-08T12:59:39.801Z,0.57
2023-01-08T13:02:44.399Z,0.30
2023-01-08T13:05:18.723Z,0.47
2023-01-08T13:07:49.549Z,0.50
2023-01-08T13:10:48.177Z,0.47
2023-01-08T13:13:29.816Z,0.40
2023-01-08T13:16:29.231Z,0.20
2023-01-08T13:18:59.984Z,2.80
2023-01-08T13:21:51.158Z,0.57
2023-01-08T13:24:31.252Z,0.32
2023-01-08T13:27:18.558Z,0.50
2023-01-08T13:29:49.102Z,0.38
2023-01-08T13:32:47.608Z,0.45
2023-01-08T13:35:17.495Z,0.40
2023-01-08T13:38:11.373Z,0.50
2023-01-08T13:40:44.263Z,0.40
2023-01-08T13:43:19.412Z,0.40
2023-01-08T13:46:01.034Z,0.47
2023-01-08T13:48:52.728Z,0.30
2023-01-08T13:51:43.653Z,0.28
2023-01-08T13:54:13.872Z,0.30
2023-01-08T13:56:42.799Z,0.50
2023-01-08T13:59:40.879Z,0.40
2023-01-08T14:02:31.804Z,0.40
2023-01-08T14:05:17.579Z,0.32
2023-01-08T14:07:44.405Z,0.30
2023-01-08T14:10:15.334Z,0.50
2023-01-08T14:12:44.513Z,0.60
2023-01-08T14:15:22.156Z,0.50
2023-01-08T14:17:49.235Z,0.40
2023-01-08T14:20:31.596Z,0.60
2023-01-08T14:23:00.649Z,0.50
2023-01-08T14:25:27.827Z,0.50
2023-01-08T14:28:04.019Z,0.70
2023-01-08T14:30:31.308Z,0.70
2023-01-08T14:32:59.865Z,0.60
2023-01-08T14:35:35.062Z,0.60
2023-01-08T14:38:02.813Z,0.50
2023-01-08T14:40:42.854Z,0.60
2023-01-08T14:43:14.327Z,0.60
2023-01-08T14:45:48.863Z,0.60
2023-01-08T14:48:25.554Z,0.60
2023-01-08T14:51:06.187Z,0.57
2023-01-08T14:53:36.443Z,0.60
2023-01-08T14:56:05.567Z,0.47
2023-01-08T14:58:39.058Z,0.40
2023-01-08T15:01:30.935Z,0.50
2023-01-08T15:04:18.272Z,0.70
2023-01-08T15:06:45.550Z,0.55
2023-01-08T15:09:31.635Z,0.57
2023-01-08T15:12:04.257Z,0.70
2023-01-08T15:14:33.401Z,0.57
2023-01-08T15:17:14.431Z,0.70
2023-01-08T15:19:55.340Z,0.50
2023-01-08T15:22:27.544Z,0.50
2023-01-08T15:25:01.257Z,0.52
2023-01-08T15:27:31.264Z,0.70
2023-01-08T15:32:37.214Z,0.60
2023-01-08T15:35:18.651Z,0.75
2023-01-08T15:37:45.659Z,0.90
2023-01-08T15:40:13.323Z,0.77
2023-01-08T15:42:58.564Z,0.82
2023-01-08T15:45:33.235Z,0.98
2023-01-08T15:48:00.271Z,0.63
2023-01-08T15:50:28.551Z,0.60
2023-01-08T15:53:00.917Z,0.75
2023-01-08T15:55:27.796Z,0.80
2023-01-08T15:57:57.603Z,0.90
2023-01-08T16:00:24.571Z,1.20
2023-01-08T16:02:53.825Z,1.63
2023-01-08T16:05:23.761Z,1.98
2023-01-08T16:07:50.554Z,2.50
2023-01-08T16:10:17.832Z,2.22
2023-01-08T16:12:45.611Z,2.25
2023-01-08T16:15:14.547Z,2.40
2023-01-08T16:17:42.289Z,3.85
2023-01-08T16:20:10.431Z,3.97
2023-01-08T16:22:37.668Z,4.35
2023-01-08T16:25:05.272Z,4.00
2023-01-08T16:27:33.261Z,4.07
2023-01-08T16:30:00.568Z,2.95
2023-01-08T16:32:27.446Z,2.88
2023-01-08T16:34:54.911Z,4.45
2023-01-08T16:37:22.298Z,7.03
2023-01-08T16:39:49.330Z,6.93
2023-01-08T16:42:16.159Z,5.43
2023-01-08T16:44:42.937Z,4.70
2023-01-08T16:47:09.687Z,4.10
2023-01-08T16:49:36.463Z,3.38
2023-01-08T16:52:03.449Z,3.40
2023-01-08T16:54:30.219Z,3.42
2023-01-08T16:56:56.956Z,2.38
2023-01-08T16:59:25.072Z,1.90
2023-01-08T17:01:52.709Z,2.10
2023-01-08T17:04:20.421Z,2.00
2023-01-08T17:06:47.314Z,4.70
2023-01-08T17:09:14.796Z,7.88
2023-01-08T17:11:42.296Z,7.47
2023-01-08T17:14:09.373Z,6.70
2023-01-08T17:16:36.240Z,4.07
2023-01-08T17:19:03.080Z,4.05
2023-01-08T17:21:29.935Z,3.22
2023-01-08T17:23:56.741Z,2.92
2023-01-08T17:26:24.075Z,3.72
2023-01-08T17:28:50.834Z,4.22
2023-01-08T17:31:19.415Z,4.72
2023-01-08T17:33:50.857Z,5.13
2023-01-08T17:36:24.871Z,5.22
2023-01-08T17:38:54.188Z,4.82
2023-01-08T17:41:40.935Z,3.63
2023-01-08T17:44:10.299Z,3.05
2023-01-08T17:46:42.156Z,2.70
2023-01-08T17:49:11.112Z,2.78
2023-01-08T17:51:38.618Z,2.70
2023-01-08T17:54:05.451Z,2.75
2023-01-08T17:56:32.306Z,2.38
2023-01-08T17:58:59.156Z,2.22
2023-01-08T18:01:26.570Z,2.03
2023-01-08T18:03:53.522Z,2.15
2023-01-08T18:06:20.313Z,2.40
2023-01-08T18:08:47.416Z,4.22
2023-01-08T18:11:14.419Z,3.05
2023-01-08T18:13:41.213Z,3.00
2023-01-08T18:16:13.550Z,3.30
2023-01-08T18:18:40.896Z,2.97
2023-01-08T18:21:08.088Z,2.42
2023-01-08T18:23:34.867Z,3.03
2023-01-08T18:26:08.223Z,4.18
2023-01-08T18:28:35.797Z,4.20
2023-01-08T18:31:09.038Z,4.10
2023-01-08T18:33:37.417Z,4.10
2023-01-08T18:36:09.269Z,3.63
2023-01-08T18:38:41.884Z,3.65
2023-01-08T18:41:12.163Z,5.60
2023-01-08T18:43:38.922Z,6.50
2023-01-08T18:46:08.000Z,5.25
2023-01-08T18:48:35.345Z,4.53
2023-01-08T18:51:05.294Z,4.50
2023-01-08T18:56:01.211Z,7.00
2023-01-08T18:58:28.686Z,7.03
2023-01-08T19:00:55.719Z,6.05
2023-01-08T19:03:22.650Z,5.85
2023-01-08T19:05:49.496Z,5.05
2023-01-08T19:08:16.317Z,6.65
2023-01-08T19:10:43.079Z,5.90
2023-01-08T19:13:09.895Z,5.00
2023-01-08T19:15:36.733Z,4.43
2023-01-08T19:18:05.894Z,3.78
2023-01-08T19:20:32.663Z,4.43
2023-01-08T19:22:59.459Z,3.47
2023-01-08T19:25:26.352Z,4.15
2023-01-08T19:27:53.280Z,3.13
2023-01-08T19:30:20.249Z,3.10
2023-01-08T19:32:48.843Z,3.00
2023-01-08T19:35:15.653Z,3.80
2023-01-08T19:37:43.046Z,4.75
2023-01-08T19:40:10.663Z,4.35
2023-01-08T19:42:55.817Z,3.97
2023-01-08T19:45:22.624Z,3.75
2023-01-08T19:47:49.465Z,3.30
2023-01-08T19:50:16.745Z,3.17
2023-01-08T19:52:43.537Z,3.28
2023-01-08T19:55:10.390Z,4.32
2023-01-08T19:57:37.178Z,3.20
2023-01-08T20:00:05.047Z,3.72
2023-01-08T20:02:38.595Z,3.10
2023-01-08T20:05:05.939Z,2.60
2023-01-08T20:07:32.738Z,2.00
2023-01-08T20:10:01.503Z,2.08
2023-01-08T20:12:28.548Z,1.88
2023-01-08T20:14:55.313Z,1.80
2023-01-08T20:17:25.254Z,1.77
2023-01-08T20:22:19.393Z,1.67
2023-01-08T20:24:46.827Z,1.75
2023-01-08T20:27:13.652Z,1.92
2023-01-08T20:29:41.582Z,1.85
2023-01-08T20:32:08.373Z,1.85
2023-01-08T20:34:35.154Z,1.45
2023-01-08T20:37:05.703Z,1.80
2023-01-08T20:39:32.493Z,2.00
2023-01-08T20:42:04.200Z,2.00
2023-01-08T20:44:33.068Z,1.98
2023-01-08T20:47:01.477Z,1.98
2023-01-08T20:49:29.398Z,2.00
2023-01-08T20:51:59.788Z,2.00
2023-01-08T20:54:29.341Z,1.90
2023-01-08T20:56:57.783Z,1.90
2023-01-08T20:59:25.288Z,1.75
2023-01-08T21:01:52.747Z,1.88
2023-01-08T21:04:20.003Z,1.85
2023-01-08T21:06:46.870Z,1.70
2023-01-08T21:09:16.051Z,1.70
2023-01-08T21:11:42.903Z,2.05
2023-01-08T21:14:10.924Z,2.00
2023-01-08T21:16:40.276Z,1.92
2023-01-08T21:19:09.989Z,2.00
2023-01-08T21:21:40.211Z,1.60
2023-01-08T21:24:09.322Z,1.75
2023-01-08T21:26:37.353Z,1.70
2023-01-08T21:29:06.588Z,1.55
2023-01-08T21:31:35.027Z,1.83
2023-01-08T21:34:03.081Z,1.63
2023-01-08T21:36:31.971Z,1.58
2023-01-08T21:39:01.181Z,1.58
2023-01-08T21:41:48.381Z,1.80
2023-01-08T21:44:40.031Z,1.85
2023-01-08T21:47:12.773Z,1.52
2023-01-08T21:49:40.625Z,1.67
2023-01-08T21:52:26.421Z,1.50
2023-01-08T21:54:53.876Z,1.55
2023-01-08T21:57:21.037Z,2.03
2023-01-08T21:59:51.458Z,1.55
2023-01-08T22:02:20.925Z,1.58
2023-01-08T22:04:48.695Z,1.27
2023-01-08T22:07:16.103Z,2.13
2023-01-08T22:09:42.979Z,2.72
2023-01-08T22:12:10.406Z,4.28
2023-01-08T22:14:37.273Z,3.55
2023-01-08T22:17:08.106Z,3.67
2023-01-08T22:19:37.627Z,2.60
2023-01-08T22:22:04.892Z,1.50
2023-01-08T22:24:31.945Z,2.20
2023-01-08T22:26:58.731Z,3.25
2023-01-08T22:29:25.496Z,3.17
2023-01-08T22:31:52.545Z,2.20
2023-01-08T22:34:19.365Z,1.02
2023-01-08T22:36:49.955Z,1.00
2023-01-08T22:39:17.001Z,1.00
2023-01-08T22:41:44.691Z,1.10
2023-01-08T22:44:12.724Z,0.95
2023-01-08T22:46:39.858Z,0.90
2023-01-08T22:49:06.913Z,0.85
2023-01-08T22:51:34.005Z,1.48
2023-01-08T22:54:00.894Z,1.30
2023-01-08T22:56:28.070Z,1.00
2023-01-08T22:58:55.258Z,0.80
2023-01-08T23:01:25.727Z,0.82
2023-01-08T23:03:56.163Z,0.70
2023-01-08T23:06:25.175Z,0.70
2023-01-08T23:08:52.556Z,0.83
2023-01-08T23:11:21.046Z,0.60
2023-01-08T23:13:48.969Z,0.50
2023-01-08T23:16:18.776Z,0.70
2023-01-08T23:18:45.709Z,0.60
2023-01-08T23:21:18.963Z,0.68
2023-01-08T23:23:45.788Z,0.70
2023-01-08T23:26:20.055Z,0.70
2023-01-08T23:28:48.568Z,1.00
2023-01-08T23:31:20.467Z,1.00
2023-01-08T23:33:47.680Z,0.85
2023-01-08T23:36:23.108Z,1.05
2023-01-08T23:38:53.677Z,1.00
2023-01-08T23:41:25.473Z,1.25
2023-01-08T23:43:52.271Z,1.27
2023-01-08T23:46:19.041Z,1.58
2023-01-08T23:48:45.827Z,1.35
2023-01-08T23:51:12.695Z,1.50
2023-01-08T23:53:39.468Z,1.55
2023-01-08T23:56:07.424Z,1.70
2023-01-08T23:58:34.583Z,1.60
